Data for 07/12/2017

Time Sea-Level Adjusted Pressure Absolute Pressure Temperature Relative Humidity Dew Point   
(mb) (inHg) (mb) (inHg) (C) (F) (%) (C) (F)
00:05 1020 30.12 849 25.07 17.5 63.4 46 5.8 42.5
00:10 1020 30.12 849 25.07 17.7 63.9 46 6 42.9
00:15 1020 30.12 849 25.07 17.8 64.1 45 5.7 42.3
00:20 1020 30.12 849 25.07 18.1 64.5 43 5.3 41.5
00:25 1020 30.12 849 25.07 18.4 65 42 5.2 41.4
00:30 1020 30.12 849 25.07 18.6 65.5 41 5.2 41.3
00:35 1020 30.12 849 25.07 18.6 65.4 41 5.2 41.4
00:40 1020 30.12 849 25.07 18.6 65.6 40 5 41.1
00:45 1020 30.12 849 25.07 18.8 65.8 40 5 41
00:50 1020 30.12 849 25.07 18.8 65.8 40 4.8 40.7
00:55 1020 30.12 849 25.07 18.8 65.8 39 4.8 40.7
01:00 1020 30.12 849 25.07 18.7 65.7 40 4.9 40.8
01:05 1020 30.12 850 25.1 18.6 65.4 41 5.2 41.3
01:10 1020 30.12 850 25.1 18.4 65.1 42 5.3 41.5
01:15 1020 30.12 850 25.1 18.3 64.9 43 5.7 42.3
01:20 1020 30.12 850 25.1 18.1 64.6 45 6.1 42.9
01:25 1020 30.12 850 25.1 17.9 64.2 46 6.2 43.1
01:30 1020 30.12 850 25.1 17.8 64 46 6.2 43.2
01:35 1020 30.12 850 25.1 17.7 63.8 47 6.4 43.5
01:40 1020 30.12 850 25.1 17.5 63.6 48 6.4 43.5
01:45 1020 30.12 850 25.1 17.5 63.5 48 6.4 43.6
01:50 1020 30.12 850 25.1 17.5 63.5 48 6.5 43.8
01:55 1020 30.12 849 25.07 17.5 63.4 49 6.6 43.9
02:00 1020 30.12 850 25.1 17.4 63.2 49 6.6 43.9
02:05 1020 30.12 849 25.07 17.3 63.2 49 6.6 43.8
02:10 1020 30.12 850 25.1 17.4 63.2 49 6.7 44.1
02:15 1020 30.12 850 25.1 17.3 63.1 49 6.7 44
02:20 1020 30.12 850 25.1 17.3 63.1 50 6.7 44.1
02:25 1020 30.12 850 25.1 17.2 62.9 50 6.7 44.1
02:30 1020 30.12 850 25.1 17.1 62.8 50 6.8 44.2
02:35 1020 30.12 850 25.1 17.1 62.7 50 6.8 44.2
02:40 1020 30.12 850 25.1 17 62.5 51 6.8 44.3
02:45 1020 30.12 850 25.1 16.8 62.3 51 6.8 44.3
02:50 1020 30.12 850 25.1 16.7 62 52 6.8 44.2
02:55 1021 30.15 850 25.1 16.7 62 52 6.8 44.3
03:00 1021 30.15 850 25.1 16.6 61.8 52 6.9 44.4
03:05 1021 30.15 850 25.1 16.5 61.7 53 6.9 44.4
03:10 1021 30.15 850 25.1 16.4 61.5 53 6.9 44.4
03:15 1021 30.15 850 25.1 16.3 61.4 53 6.9 44.5
03:20 1021 30.15 850 25.1 16.2 61.1 54 6.9 44.5
03:25 1021 30.15 850 25.1 16.1 61 54 6.9 44.4
03:30 1021 30.15 850 25.1 16.1 61 54 7 44.5
03:35 1021 30.15 850 25.1 16 60.9 55 7.1 44.7
03:40 1021 30.15 850 25.1 16 60.7 55 7.1 44.8
03:45 1021 30.15 850 25.1 15.9 60.6 56 7.1 44.9
03:50 1021 30.15 850 25.1 15.8 60.5 56 7.1 44.8
03:55 1021 30.15 850 25.1 15.8 60.4 56 7.2 45
04:00 1021 30.15 850 25.1 15.7 60.3 57 7.2 45
04:05 1021 30.15 850 25.1 15.7 60.2 57 7.2 45
04:10 1021 30.15 850 25.1 15.6 60.1 58 7.3 45.2
04:15 1021 30.15 850 25.1 15.5 60 58 7.3 45.2
04:20 1021 30.15 850 25.1 15.5 59.9 58 7.3 45.2
04:25 1021 30.15 850 25.1 15.4 59.7 59 7.4 45.3
04:30 1021 30.15 850 25.1 15.3 59.6 59 7.5 45.4
04:35 1021 30.15 850 25.1 15.2 59.4 60 7.5 45.4
04:40 1021 30.15 850 25.1 15.2 59.3 60 7.5 45.5
04:45 1021 30.15 850 25.1 15.1 59.2 60 7.6 45.6
04:50 1021 30.15 850 25.1 15 59 61 7.6 45.7
04:55 1021 30.15 850 25.1 14.9 58.9 61 7.6 45.7
05:00 1021 30.15 850 25.1 14.8 58.7 62 7.6 45.7
05:05 1021 30.15 850 25.1 14.8 58.6 62 7.7 45.9
05:10 1021 30.15 850 25.1 14.6 58.3 63 7.7 45.9
05:15 1021 30.15 850 25.1 14.6 58.2 63 7.7 45.9
05:20 1021 30.15 850 25.1 14.6 58.2 63 7.8 46
05:25 1021 30.15 850 25.1 14.5 58.1 64 7.9 46.1
05:30 1021 30.15 850 25.1 14.4 57.9 64 7.8 46.1
05:35 1021 30.15 851 25.13 14.3 57.7 65 7.9 46.2
05:40 1021 30.15 851 25.13 14.2 57.5 66 7.9 46.2
05:45 1021 30.15 851 25.13 14.1 57.5 66 7.9 46.3
05:50 1021 30.15 851 25.13 14.1 57.3 66 8 46.3
05:55 1021 30.15 851 25.13 14 57.2 67 8 46.4
06:00 1022 30.18 851 25.13 13.9 57.1 67 8 46.4
06:05 1022 30.18 851 25.13 13.9 57.1 67 8 46.4
06:10 1022 30.18 851 25.13 14 57.1 67 8.1 46.5
06:15 1022 30.18 851 25.13 14.1 57.3 67 8.1 46.6
06:20 1022 30.18 851 25.13 14.1 57.4 67 8.2 46.7
06:25 1022 30.18 851 25.13 14.3 57.7 67 8.2 46.8
06:30 1022 30.18 851 25.13 14.3 57.7 67 8.3 46.9
06:35 1022 30.18 851 25.13 14.3 57.8 67 8.3 46.9
06:40 1022 30.18 851 25.13 14.3 57.8 67 8.3 46.9
06:45 1022 30.18 851 25.13 14.3 57.8 67 8.4 47
06:50 1022 30.18 851 25.13 14.3 57.8 67 8.4 47.1
06:55 1022 30.18 851 25.13 14.4 57.9 67 8.4 47.1
07:00 1022 30.18 851 25.13 14.5 58.1 66 8.3 47
07:05 1022 30.18 851 25.13 14.6 58.2 66 8.3 47
07:10 1022 30.18 851 25.13 14.7 58.5 66 8.4 47.2
07:15 1022 30.18 851 25.13 14.8 58.7 66 8.5 47.3
07:20 1022 30.18 851 25.13 15 59 65 8.6 47.4
07:25 1022 30.18 851 25.13 15.1 59.2 65 8.5 47.4
07:30 1022 30.18 851 25.13 15.2 59.4 65 8.7 47.6
07:35 1022 30.18 851 25.13 15.4 59.7 64 8.6 47.5
07:40 1022 30.18 851 25.13 15.6 60 63 8.6 47.6
07:45 1022 30.18 851 25.13 15.8 60.5 63 8.8 47.8
07:50 1022 30.18 851 25.13 15.9 60.5 62 8.7 47.6
07:55 1022 30.18 851 25.13 16.1 60.9 62 8.8 47.9
08:00 1022 30.18 851 25.13 16.2 61.1 60 8.5 47.3
08:05 1022 30.18 851 25.13 16.3 61.3 60 8.5 47.3
08:10 1022 30.18 851 25.13 16.3 61.4 60 8.5 47.4
08:15 1022 30.18 851 25.13 16.5 61.8 58 8.4 47.1
08:20 1022 30.18 851 25.13 16.7 62.1 58 8.5 47.3
08:25 1022 30.18 851 25.13 16.8 62.3 57 8.3 46.9
08:30 1022 30.18 851 25.13 17.2 62.9 56 8.4 47.1
08:35 1022 30.18 851 25.13 17.2 63 55 8.3 46.9
08:40 1022 30.18 851 25.13 17.3 63.1 56 8.4 47.1
08:45 1022 30.18 851 25.13 17.2 63 55 8.2 46.8
08:50 1022 30.18 851 25.13 17.3 63.2 55 8.3 46.9
08:55 1022 30.18 851 25.13 17.4 63.3 54 8.1 46.6
09:00 1022 30.18 851 25.13 17.7 63.8 53 8.1 46.6
09:05 1022 30.18 851 25.13 17.6 63.7 54 8.4 47.1
09:10 1022 30.18 851 25.13 17.9 64.1 54 8.4 47.1
09:15 1022 30.18 851 25.13 18 64.3 54 8.5 47.3
09:20 1022 30.18 851 25.13 18.1 64.6 52 8.2 46.8
09:25 1022 30.18 851 25.13 18.2 64.8 52 8.4 47.1
09:30 1022 30.18 851 25.13 18.4 65.1 51 8.3 47
09:35 1022 30.18 851 25.13 18.6 65.5 51 8.5 47.3
09:40 1022 30.18 851 25.13 18.6 65.5 51 8.4 47.1
09:45 1022 30.18 851 25.13 19 66.1 50 8.4 47
09:50 1022 30.18 851 25.13 18.9 66 51 8.6 47.5
09:55 1022 30.18 851 25.13 19.2 66.5 50 8.6 47.5
10:00 1022 30.18 851 25.13 19.6 67.2 48 8.3 47
10:05 1022 30.18 851 25.13 19.2 66.5 52 9.2 48.6
10:10 1022 30.18 851 25.13 19.1 66.3 51 8.7 47.7
10:15 1022 30.18 851 25.13 18.6 65.5 54 9.2 48.5
10:20 1022 30.18 851 25.13 19.2 66.5 53 9.6 49.3
10:25 1022 30.18 851 25.13 19.5 67.2 52 9.4 49
10:30 1022 30.18 851 25.13 20 67.9 46 8.2 46.8
10:35 1022 30.18 851 25.13 20.6 69.1 45 8.4 47.1
10:40 1022 30.18 851 25.13 20.6 69 45 8.3 46.9
10:45 1022 30.18 851 25.13 20.8 69.4 44 8.1 46.6
10:50 1022 30.18 851 25.13 20.8 69.5 43 8 46.4
10:55 1022 30.18 851 25.13 20.9 69.6 43 8.1 46.5
11:00 1022 30.18 851 25.13 21 69.7 45 8.7 47.6
11:05 1022 30.18 851 25.13 21.5 70.7 42 8.2 46.8
11:10 1022 30.18 851 25.13 21.5 70.7 42 8.1 46.6
11:15 1022 30.18 851 25.13 21.6 70.9 43 8.8 47.8
11:20 1022 30.18 851 25.13 21.9 71.5 40 8.1 46.5
11:25 1022 30.18 851 25.13 21.7 71 43 8.6 47.4
11:30 1022 30.18 851 25.13 22.2 71.9 40 8 46.3
11:35 1022 30.18 851 25.13 22.8 73 39 8.3 46.9
11:40 1022 30.18 851 25.13 22.7 72.8 41 9 48.2
11:45 1022 30.18 851 25.13 22.6 72.6 42 9 48.3
11:50 1022 30.18 851 25.13 22.2 72 40 8.2 46.8
11:55 1022 30.18 851 25.13 22.6 72.6 41 8.7 47.7
12:00 1022 30.18 851 25.13 23.3 73.9 42 9.8 49.6
12:05 1021 30.15 851 25.13 23.7 74.6 38 8.6 47.4
12:10 1021 30.15 851 25.13 23.8 74.8 40 9.5 49.2
12:15 1021 30.15 851 25.13 23.8 74.9 39 9.4 48.9
12:20 1021 30.15 851 25.13 24.4 75.8 38 9.4 48.9
12:25 1021 30.15 851 25.13 24 75.1 40 9.6 49.3
12:30 1021 30.15 851 25.13 24.2 75.5 39 9.5 49.1
12:35 1021 30.15 851 25.13 24.6 76.3 39 10 49.9
12:40 1021 30.15 851 25.13 24.4 75.9 39 9.7 49.4
12:45 1021 30.15 851 25.13 24.1 75.4 40 9.8 49.7
12:50 1021 30.15 850 25.1 24.1 75.5 38 9 48.2
12:55 1021 30.15 850 25.1 25.1 77.2 36 9.3 48.7
13:00 1021 30.15 850 25.1 25.5 78 36 9.7 49.5
13:05 1021 30.15 850 25.1 25.3 77.5 36 9.5 49
13:10 1021 30.15 850 25.1 26 78.8 34 9.2 48.6
13:15 1021 30.15 850 25.1 26.3 79.3 33 8.8 47.9
13:20 1021 30.15 850 25.1 26.1 78.9 33 8.6 47.4
13:25 1021 30.15 850 25.1 25 76.9 35 8.7 47.7
13:30 1021 30.15 850 25.1 25.3 77.5 33 8.1 46.5
13:35 1021 30.15 850 25.1 26.6 79.9 32 8.8 47.8
13:40 1021 30.15 850 25.1 26.8 80.2 34 9.7 49.4
13:45 1021 30.15 850 25.1 26.5 79.6 32 8.5 47.4
13:50 1021 30.15 850 25.1 26.7 80 31 8.7 47.6
13:55 1021 30.15 850 25.1 26.3 79.4 30 7.8 46
14:00 1021 30.15 850 25.1 26.5 79.6 30 7.6 45.6
14:05 1021 30.15 850 25.1 26.8 80.2 29 7.8 46
14:10 1021 30.15 850 25.1 26.5 79.6 29 7.1 44.7
14:15 1021 30.15 850 25.1 26.8 80.2 28 7 44.6
14:20 1021 30.15 850 25.1 27.1 80.8 29 7.9 46.3
14:25 1021 30.15 850 25.1 27.3 81.2 27 7.1 44.8
14:30 1021 30.15 850 25.1 26.5 79.8 29 7.5 45.4
14:35 1021 30.15 850 25.1 26.6 79.9 26 6 42.8
14:40 1021 30.15 850 25.1 27.8 82 25 6.1 43
14:45 1021 30.15 850 25.1 27.3 81.1 24 5.3 41.6
14:50 1021 30.15 850 25.1 27.8 82 23 5 40.9
14:55 1021 30.15 850 25.1 28.4 83.1 23 5.6 42
15:00 1021 30.15 850 25.1 28.9 84.1 22 5.5 41.9
15:05 1021 30.15 850 25.1 28.9 84 22 5.4 41.7
15:10 1021 30.15 850 25.1 29.2 84.5 20 4.3 39.8
15:15 1021 30.15 850 25.1 28.8 83.8 21 4.9 40.8
15:20 1021 30.15 850 25.1 28.3 82.9 21 4 39.2
15:25 1021 30.15 850 25.1 28.6 83.6 21 4.7 40.4
15:30 1021 30.15 850 25.1 28.8 83.8 22 5.5 42
15:35 1021 30.15 850 25.1 27.9 82.2 24 6 42.7
15:40 1021 30.15 850 25.1 27.2 81 24 5 40.9
15:45 1021 30.15 850 25.1 28.5 83.3 23 5.6 42.1
15:50 1021 30.15 850 25.1 28.6 83.5 23 5.8 42.4
15:55 1021 30.15 850 25.1 29.1 84.4 21 4.8 40.6
16:00 1021 30.15 850 25.1 28.9 84 23 5.8 42.5
16:05 1020 30.12 850 25.1 28.4 83.2 23 5.5 41.9
16:10 1020 30.12 850 25.1 29 84.3 22 5.8 42.5
16:15 1020 30.12 850 25.1 29.4 84.8 22 5.7 42.3
16:20 1020 30.12 850 25.1 29.6 85.2 22 5.7 42.2
16:25 1020 30.12 850 25.1 29.3 84.8 23 6.6 43.9
16:30 1020 30.12 850 25.1 29.1 84.4 22 5.7 42.2
16:35 1020 30.12 850 25.1 29 84.2 22 5.5 41.9
16:40 1020 30.12 850 25.1 29.3 84.8 22 5.6 42.1
16:45 1020 30.12 849 25.07 29.4 84.8 21 5.3 41.6
16:50 1020 30.12 849 25.07 29 84.3 21 4.7 40.5
16:55 1020 30.12 849 25.07 28.9 84 22 5.2 41.3
17:00 1020 30.12 849 25.07 28.3 82.9 22 4.9 40.9
17:05 1020 30.12 849 25.07 28.3 82.9 22 5.1 41.2
17:10 1020 30.12 849 25.07 28 82.3 22 4.5 40.1
17:15 1020 30.12 849 25.07 28.7 83.6 22 5.4 41.7
17:20 1020 30.12 849 25.07 28.4 83.2 21 4.3 39.8
17:25 1020 30.12 849 25.07 29.7 85.4 20 4.9 40.8
17:30 1020 30.12 849 25.07 28.9 84.1 21 4.8 40.7
17:35 1020 30.12 849 25.07 29 84.3 20 4.2 39.5
17:40 1020 30.12 849 25.07 28.8 83.8 20 3.8 38.8
17:45 1020 30.12 849 25.07 28.9 84.1 20 4.3 39.7
17:50 1020 30.12 849 25.07 28.5 83.2 21 4.5 40.1
17:55 1020 30.12 849 25.07 28.2 82.7 21 4 39.1
18:00 1020 30.12 849 25.07 28.5 83.3 23 5.6 42
18:05 1020 30.12 849 25.07 28.5 83.3 21 4.5 40.2
18:10 1020 30.12 849 25.07 28.6 83.5 21 4.5 40.1
18:15 1020 30.12 849 25.07 29.2 84.5 21 5 40.9
18:20 1020 30.12 849 25.07 28.2 82.7 22 4.6 40.3
18:25 1020 30.12 849 25.07 27.9 82.2 22 4.8 40.6
18:30 1020 30.12 849 25.07 28.2 82.8 22 5.1 41.1
18:35 1020 30.12 849 25.07 27.9 82.3 22 4.6 40.3
18:40 1020 30.12 849 25.07 28 82.4 21 3.9 39.1
18:45 1020 30.12 849 25.07 28.6 83.4 22 4.8 40.7
18:50 1020 30.12 849 25.07 28.2 82.8 21 4.1 39.3
18:55 1020 30.12 849 25.07 28 82.3 21 4.1 39.4
19:00 1020 30.12 849 25.07 28.5 83.3 20 3.8 38.8
19:05 1020 30.12 849 25.07 28.5 83.4 21 4.4 40
19:10 1020 30.12 849 25.07 28 82.3 20 3.4 38.1
19:15 1020 30.12 849 25.07 27.9 82.3 21 3.7 38.6
19:20 1020 30.12 849 25.07 28 82.3 20 3.5 38.4
19:25 1020 30.12 849 25.07 27.9 82.1 21 3.6 38.5
19:30 1020 30.12 849 25.07 27.5 81.6 22 4.1 39.4
19:35 1020 30.12 849 25.07 27.4 81.4 22 4.1 39.4
19:40 1020 30.12 849 25.07 27.3 81.2 22 3.9 39
19:45 1020 30.12 849 25.07 27.3 81.1 23 4.5 40.2
19:50 1020 30.12 849 25.07 27.1 80.8 27 6.6 43.8
19:55 1020 30.12 849 25.07 26.7 80.1 29 7.4 45.3
20:00 1020 30.12 849 25.07 26.4 79.5 31 8.1 46.6
20:05 1020 30.12 849 25.07 26.1 78.9 32 8.5 47.2
20:10 1020 30.12 849 25.07 26 78.7 33 8.5 47.4
20:15 1020 30.12 849 25.07 25.7 78.2 33 8.4 47.1
20:20 1020 30.12 849 25.07 25.4 77.8 33 8.3 47
20:25 1020 30.12 849 25.07 25.2 77.4 34 8.3 46.9
20:30 1020 30.12 849 25.07 25 77 34 8.2 46.7
20:35 1020 30.12 849 25.07 24.8 76.7 34 8.1 46.6
20:40 1020 30.12 849 25.07 24.6 76.4 34 8.1 46.7
20:45 1020 30.12 849 25.07 24.4 76 35 8.3 47
20:50 1020 30.12 849 25.07 24.2 75.6 36 8.2 46.8
20:55 1020 30.12 849 25.07 24 75.2 35 8 46.4
21:00 1020 30.12 849 25.07 23.9 75 36 8.1 46.5
21:05 1020 30.12 849 25.07 23.7 74.6 36 8 46.4
21:10 1020 30.12 849 25.07 23.6 74.5 36 8.1 46.5
21:15 1020 30.12 849 25.07 23.4 74.1 37 8.2 46.7
21:20 1020 30.12 849 25.07 23.3 73.9 37 8.1 46.6
21:25 1020 30.12 849 25.07 23.2 73.8 37 8 46.4
21:30 1020 30.12 849 25.07 23.2 73.7 37 8 46.4
21:35 1020 30.12 849 25.07 23.1 73.6 37 8 46.3
21:40 1020 30.12 849 25.07 23.1 73.5 38 8.1 46.5
21:45 1020 30.12 849 25.07 23 73.4 38 8.1 46.6
21:50 1020 30.12 850 25.1 22.8 73.1 38 8.1 46.6
21:55 1020 30.12 850 25.1 22.8 73 39 8.1 46.6
22:00 1020 30.12 850 25.1 22.7 72.9 39 8.2 46.8
22:05 1020 30.12 850 25.1 22.5 72.6 40 8.3 46.9
22:10 1021 30.15 850 25.1 22.4 72.4 39 8.1 46.6
22:15 1021 30.15 850 25.1 22.4 72.3 40 8.2 46.8
22:20 1021 30.15 850 25.1 22.3 72.1 40 8.3 46.9
22:25 1021 30.15 850 25.1 22.3 72.1 40 8.1 46.5
22:30 1021 30.15 850 25.1 22.3 72.1 40 8.3 46.9
22:35 1021 30.15 850 25.1 22.1 71.8 41 8.4 47.2
22:40 1021 30.15 850 25.1 22 71.5 41 8.3 47
22:45 1021 30.15 850 25.1 22.1 71.7 41 8.4 47.1
22:50 1021 30.15 850 25.1 22.1 71.8 41 8.4 47.1
22:55 1021 30.15 850 25.1 22.1 71.9 41 8.4 47.2
23:00 1021 30.15 850 25.1 22 71.7 41 8.5 47.2
23:05 1021 30.15 850 25.1 22 71.6 42 8.6 47.4
23:10 1021 30.15 850 25.1 22 71.5 42 8.6 47.6
23:15 1021 30.15 850 25.1 21.9 71.5 42 8.7 47.6
23:20 1021 30.15 850 25.1 21.9 71.3 43 8.8 47.8
23:25 1021 30.15 850 25.1 21.8 71.3 43 8.8 47.8
23:30 1021 30.15 850 25.1 21.7 71.1 44 8.9 48.1
23:35 1021 30.15 850 25.1 21.6 70.8 44 9 48.1
23:40 1021 30.15 850 25.1 21.6 70.9 44 9 48.3
23:45 1020 30.12 850 25.1 21.6 70.9 44 9.2 48.5
23:50 1021 30.15 850 25.1 21.3 70.4 46 9.3 48.8
23:55 1021 30.15 850 25.1 21.2 70.1 46 9.3 48.7
24:00 1021 30.15 850 25.1 21.1 70.1 46 9.2 48.6